Time;durP1;ratioP1;P1;durP2;ratioP2;P2;SDS_P1;SDS_P2;PMS_P1;PMS_P2;Temp;Humidity;BMP_temperature;BMP_pressure;BME280_temperature;BME280_humidity;BME280_pressure;Samples;Min_cycle;Max_cycle;Signal;HPM_P1;HPM_P2
2021/04/21 00:02:24;;;;;;;9.53;8.53;;;8.70;99.90;;;;;;6265447;22;20575;-64
2021/04/21 00:04:51;;;;;;;8.70;7.80;;;8.70;99.90;;;;;;6294971;22;20556;-64
2021/04/21 00:07:18;;;;;;;9.67;8.70;;;8.70;99.90;;;;;;6275736;22;21066;-63
2021/04/21 00:09:46;;;;;;;10.90;9.07;;;8.60;99.90;;;;;;6271355;22;20579;-64
2021/04/21 00:12:15;;;;;;;9.80;8.80;;;8.70;99.90;;;;;;6300520;22;20528;-64
2021/04/21 00:14:40;;;;;;;10.83;8.87;;;8.70;99.90;;;;;;6302299;22;20573;-63
2021/04/21 00:17:07;;;;;;;8.77;7.87;;;8.70;99.90;;;;;;6300905;22;20561;-64
2021/04/21 00:19:40;;;;;;;9.83;8.37;;;8.60;99.90;;;;;;6275260;22;20489;-63
2021/04/21 00:22:08;;;;;;;8.60;7.70;;;8.60;99.90;;;;;;6298860;22;21006;-64
2021/04/21 00:24:37;;;;;;;12.13;9.03;;;8.60;99.90;;;;;;6301915;22;20592;-63
2021/04/21 00:27:05;;;;;;;10.60;7.90;;;8.50;99.90;;;;;;6303208;22;20595;-64
2021/04/21 00:29:32;;;;;;;8.70;7.80;;;8.50;99.90;;;;;;6277506;22;20537;-64
2021/04/21 00:32:00;;;;;;;9.20;8.20;;;8.40;99.90;;;;;;6275488;22;20557;-63
2021/04/21 00:34:30;;;;;;;9.20;8.10;;;8.40;99.90;;;;;;6276058;22;20595;-63
2021/04/21 00:36:57;;;;;;;8.53;7.63;;;8.40;99.90;;;;;;6275707;22;20560;-63
2021/04/21 00:39:24;;;;;;;9.40;8.50;;;8.40;99.90;;;;;;6275485;22;21159;-63
2021/04/21 00:42:04;;;;;;;7.97;7.17;;;8.40;99.90;;;;;;6306098;22;20529;-63
2021/04/21 00:44:58;;;;;;;10.50;7.80;;;8.30;99.90;;;;;;6299244;22;20645;-63
2021/04/21 00:47:51;;;;;;;10.20;8.90;;;8.30;99.90;;;;;;6302554;22;20537;-63
2021/04/21 00:50:26;;;;;;;8.17;7.37;;;8.20;99.90;;;;;;6276279;22;20604;-64
2021/04/21 00:53:00;;;;;;;8.67;7.87;;;8.30;99.90;;;;;;6299547;22;20706;-64
2021/04/21 00:55:33;;;;;;;9.33;8.33;;;8.20;99.90;;;;;;6268177;22;21211;-63
2021/04/21 00:58:06;;;;;;;9.40;8.40;;;8.20;99.90;;;;;;6301900;22;20818;-64
2021/04/21 01:00:42;;;;;;;8.47;7.67;;;8.10;99.90;;;;;;6300888;22;20552;-63
2021/04/21 01:03:13;;;;;;;10.03;8.53;;;8.20;99.90;;;;;;6300475;22;20604;-63
2021/04/21 01:05:41;;;;;;;9.37;8.37;;;8.10;99.90;;;;;;6271965;22;20699;-63
2021/04/21 01:08:14;;;;;;;9.37;8.37;;;8.10;99.90;;;;;;6277271;22;20567;-63
2021/04/21 01:10:59;;;;;;;12.37;9.20;;;8.10;99.90;;;;;;6299170;22;20607;-63
2021/04/21 01:13:32;;;;;;;8.73;7.60;;;8.00;99.90;;;;;;6299031;22;20922;-63
2021/04/21 01:15:58;;;;;;;9.00;8.10;;;8.10;99.90;;;;;;6303618;22;20502;-63
2021/04/21 01:18:30;;;;;;;9.97;8.93;;;8.00;99.90;;;;;;6303170;22;20529;-63
2021/04/21 01:21:21;;;;;;;12.70;9.03;;;8.00;99.90;;;;;;6305699;22;20580;-63
2021/04/21 01:24:16;;;;;;;10.40;8.70;;;8.00;99.90;;;;;;6304337;22;21146;-64
2021/04/21 01:26:53;;;;;;;10.00;8.80;;;8.00;99.90;;;;;;6303519;22;20546;-64
2021/04/21 01:29:28;;;;;;;10.57;9.47;;;8.00;99.90;;;;;;6297268;22;20631;-64
2021/04/21 01:31:56;;;;;;;10.10;9.10;;;8.00;99.90;;;;;;6300449;22;20558;-63
2021/04/21 01:34:24;;;;;;;11.43;10.00;;;8.00;99.90;;;;;;6291708;22;20919;-64
2021/04/21 01:36:54;;;;;;;10.93;9.83;;;8.00;99.90;;;;;;6300850;22;20855;-63
2021/04/21 01:39:20;;;;;;;11.20;10.00;;;7.90;99.90;;;;;;6335857;22;20737;-67
2021/04/21 01:41:51;;;;;;;10.73;8.90;;;7.90;99.90;;;;;;6358449;22;20526;-65
2021/04/21 01:44:45;;;;;;;10.67;9.57;;;7.90;99.90;;;;;;6330007;22;20587;-67
2021/04/21 01:47:16;;;;;;;12.47;9.77;;;7.90;99.90;;;;;;6358848;22;20570;-67
2021/04/21 01:49:58;;;;;;;10.73;9.17;;;7.80;99.90;;;;;;6357769;22;20927;-69
2021/04/21 01:52:48;;;;;;;10.50;9.43;;;7.80;99.90;;;;;;6359683;22;20507;-65
2021/04/21 01:55:32;;;;;;;10.73;9.57;;;7.80;99.90;;;;;;6359952;22;20523;-67
2021/04/21 01:58:12;;;;;;;10.50;8.73;;;7.80;99.90;;;;;;6361089;22;20507;-66
2021/04/21 02:00:45;;;;;;;10.77;9.43;;;7.70;99.90;;;;;;6358717;22;20806;-66
2021/04/21 02:03:36;;;;;;;12.20;9.80;;;7.70;99.90;;;;;;6357183;22;20703;-64
2021/04/21 02:06:27;;;;;;;9.47;8.43;;;7.70;99.90;;;;;;6318884;22;21115;-64
2021/04/21 02:09:08;;;;;;;11.03;9.77;;;7.70;99.90;;;;;;6358122;22;20488;-64
2021/04/21 02:11:37;;;;;;;9.93;8.93;;;7.70;99.90;;;;;;6358862;22;20547;-66
2021/04/21 02:14:48;;;;;;;10.87;9.77;;;7.70;99.90;;;;;;6362003;22;20567;-65
2021/04/21 02:17:37;;;;;;;13.73;10.00;;;7.60;99.90;;;;;;6309240;22;20603;-66
2021/04/21 02:20:06;;;;;;;11.53;9.40;;;7.60;99.90;;;;;;6362559;22;20495;-66
2021/04/21 02:22:42;;;;;;;12.30;9.40;;;7.60;99.90;;;;;;6361241;22;20579;-66
2021/04/21 02:25:24;;;;;;;13.10;9.77;;;7.60;99.90;;;;;;6335113;22;20681;-66
2021/04/21 02:28:04;;;;;;;10.00;9.00;;;7.60;99.90;;;;;;6348538;22;20554;-67
2021/04/21 02:30:41;;;;;;;10.57;9.43;;;7.60;99.90;;;;;;6366707;22;21120;-66
2021/04/21 02:33:28;;;;;;;10.40;9.40;;;7.60;99.90;;;;;;6331638;22;20662;-66
2021/04/21 02:36:00;;;;;;;10.87;9.77;;;7.60;99.90;;;;;;6356313;22;20560;-65
2021/04/21 02:38:32;;;;;;;14.23;9.80;;;7.60;99.90;;;;;;6327706;22;20657;-65
2021/04/21 02:41:16;;;;;;;10.93;9.83;;;7.50;99.90;;;;;;6327893;22;20616;-65
2021/04/21 02:44:08;;;;;;;12.10;9.90;;;7.50;99.90;;;;;;6360291;22;20575;-66
2021/04/21 02:47:22;;;;;;;10.83;9.07;;;7.50;99.90;;;;;;6359993;22;20492;-64
2021/04/21 02:50:03;;;;;;;10.70;9.60;;;7.50;99.90;;;;;;6293083;22;20568;-66
2021/04/21 02:53:00;;;;;;;12.03;10.43;;;7.40;99.90;;;;;;6291986;22;20571;-66
2021/04/21 02:55:37;;;;;;;9.73;8.83;;;7.40;99.90;;;;;;6292660;22;20576;-64
2021/04/21 02:58:16;;;;;;;11.10;9.90;;;7.40;99.90;;;;;;6267224;22;21093;-66
2021/04/21 03:00:53;;;;;;;11.57;9.00;;;7.40;99.90;;;;;;6293837;22;20552;-66
2021/04/21 03:03:38;;;;;;;11.90;9.50;;;7.30;99.90;;;;;;6289153;22;20608;-66
2021/04/21 03:06:09;;;;;;;12.50;9.87;;;7.30;99.90;;;;;;6269623;22;20531;-66
2021/04/21 03:08:46;;;;;;;11.13;10.00;;;7.30;99.90;;;;;;6268551;22;20725;-66
2021/04/21 03:11:30;;;;;;;12.03;10.10;;;7.30;99.90;;;;;;6293846;22;20612;-66
2021/04/21 03:14:08;;;;;;;11.00;9.90;;;7.30;99.90;;;;;;6294062;22;20713;-66
2021/04/21 03:16:44;;;;;;;10.37;9.37;;;7.30;99.90;;;;;;6294786;22;20557;-67
2021/04/21 03:19:13;;;;;;;11.20;9.90;;;7.20;99.90;;;;;;6291459;22;20508;-66
2021/04/21 03:21:52;;;;;;;10.67;9.53;;;7.20;99.90;;;;;;6352760;22;20571;-66
2021/04/21 03:24:22;;;;;;;11.63;10.33;;;7.20;99.90;;;;;;6354649;22;20897;-66
2021/04/21 03:26:51;;;;;;;10.10;9.10;;;7.20;99.90;;;;;;6354727;22;20523;-64
2021/04/21 03:29:25;;;;;;;10.57;9.10;;;7.20;99.90;;;;;;6326778;22;20740;-67
2021/04/21 03:31:53;;;;;;;11.60;10.07;;;7.20;99.90;;;;;;6325822;22;20641;-64
2021/04/21 03:34:20;;;;;;;13.00;9.93;;;7.20;99.90;;;;;;6354190;22;20582;-65
2021/04/21 03:36:46;;;;;;;10.43;9.23;;;7.20;99.90;;;;;;6330989;22;21104;-66
2021/04/21 03:39:12;;;;;;;10.80;9.60;;;7.20;99.90;;;;;;6358363;22;20582;-65
2021/04/21 03:41:38;;;;;;;10.30;9.27;;;7.10;99.90;;;;;;6333194;22;20240;-68
2021/04/21 03:44:05;;;;;;;11.13;10.00;;;7.10;99.90;;;;;;6357192;22;20650;-66
2021/04/21 03:46:34;;;;;;;12.00;9.80;;;7.10;99.90;;;;;;6359864;22;20157;-66
2021/04/21 03:49:05;;;;;;;11.40;10.23;;;7.10;99.90;;;;;;6358799;22;20563;-66
2021/04/21 03:51:32;;;;;;;13.83;10.50;;;7.10;99.90;;;;;;6361484;22;21068;-64
2021/04/21 03:54:01;;;;;;;10.83;9.73;;;7.00;99.90;;;;;;6360532;22;21463;-66
2021/04/21 03:56:29;;;;;;;10.73;9.63;;;7.00;99.90;;;;;;6354257;22;20546;-66
2021/04/21 03:58:56;;;;;;;11.87;9.90;;;7.00;99.90;;;;;;6358406;22;20526;-65
2021/04/21 04:01:26;;;;;;;10.37;9.27;;;7.00;99.90;;;;;;6359967;22;20582;-66
2021/04/21 04:03:52;;;;;;;13.23;10.60;;;6.90;99.90;;;;;;6328070;22;20666;-64
2021/04/21 04:06:41;;;;;;;11.80;9.70;;;6.90;99.90;;;;;;6358583;22;20630;-65
2021/04/21 04:09:10;;;;;;;10.83;9.60;;;6.90;99.90;;;;;;6357527;22;20527;-64
2021/04/21 04:11:44;;;;;;;11.00;9.80;;;6.90;99.90;;;;;;6358912;22;20574;-65
2021/04/21 04:14:29;;;;;;;13.00;11.53;;;6.90;99.90;;;;;;6330646;22;21173;-65
2021/04/21 04:16:58;;;;;;;14.20;10.30;;;6.80;99.90;;;;;;6361038;22;21097;-64
2021/04/21 04:19:27;;;;;;;11.20;10.00;;;6.80;99.90;;;;;;6330740;22;20546;-65
2021/04/21 04:22:08;;;;;;;12.37;10.00;;;6.80;99.90;;;;;;6359602;22;20538;-65
2021/04/21 04:24:45;;;;;;;12.03;10.80;;;6.80;99.90;;;;;;6358699;22;20919;-65
2021/04/21 04:27:22;;;;;;;10.60;9.50;;;6.80;99.90;;;;;;6360441;22;20514;-65
2021/04/21 04:29:49;;;;;;;13.33;10.87;;;6.80;99.90;;;;;;6360203;22;21136;-66
2021/04/21 04:32:17;;;;;;;11.60;10.30;;;6.80;99.90;;;;;;6354275;22;21165;-66
2021/04/21 04:34:57;;;;;;;11.40;10.10;;;6.80;99.90;;;;;;6333873;22;20574;-66
2021/04/21 04:37:25;;;;;;;12.03;10.83;;;6.80;99.90;;;;;;6363404;22;20510;-66
2021/04/21 04:39:52;;;;;;;11.70;10.50;;;6.80;99.90;;;;;;6364947;22;20916;-65
2021/04/21 04:42:18;;;;;;;11.70;10.50;;;6.80;99.90;;;;;;6363937;22;20519;-66
2021/04/21 04:44:46;;;;;;;11.93;10.70;;;6.90;99.90;;;;;;6334538;22;20582;-64
2021/04/21 04:47:29;;;;;;;11.53;10.40;;;6.90;99.90;;;;;;6357811;22;20561;-65
2021/04/21 04:50:03;;;;;;;12.80;10.73;;;6.90;99.90;;;;;;6328568;22;20879;-65
2021/04/21 04:52:31;;;;;;;12.17;10.33;;;6.90;99.90;;;;;;6324998;22;20570;-65
2021/04/21 04:54:58;;;;;;;11.80;10.57;;;6.90;99.90;;;;;;6353702;22;20563;-66
2021/04/21 04:57:28;;;;;;;13.33;11.17;;;6.90;99.90;;;;;;6326002;22;20558;-64
2021/04/21 05:00:01;;;;;;;14.13;12.47;;;6.90;99.90;;;;;;6352821;22;20535;-66
2021/04/21 05:02:31;;;;;;;12.33;11.00;;;7.00;99.90;;;;;;6351328;22;20510;-64
2021/04/21 05:04:59;;;;;;;14.60;11.60;;;7.00;99.90;;;;;;6351645;22;20577;-64
2021/04/21 05:07:48;;;;;;;14.30;12.80;;;7.10;99.90;;;;;;6363075;22;20535;-65
2021/04/21 05:10:26;;;;;;;14.33;12.83;;;7.10;99.90;;;;;;6370365;22;20644;-66
2021/04/21 05:12:56;;;;;;;17.57;12.20;;;7.10;99.90;;;;;;6349021;22;21043;-66
2021/04/21 05:15:40;;;;;;;15.47;12.50;;;7.10;99.90;;;;;;6349327;22;20523;-65
2021/04/21 05:18:36;;;;;;;13.40;11.40;;;7.30;99.90;;;;;;6343652;22;21031;-65
2021/04/21 05:21:04;;;;;;;14.63;13.10;;;7.20;99.90;;;;;;6353300;22;20503;-65
2021/04/21 05:23:53;;;;;;;14.00;12.37;;;7.30;99.90;;;;;;6356242;22;20566;-66
2021/04/21 05:26:40;;;;;;;13.37;11.93;;;7.40;99.90;;;;;;6356995;22;20497;-64
2021/04/21 05:29:35;;;;;;;15.97;13.17;;;7.50;99.90;;;;;;6351615;22;20541;-65
2021/04/21 05:32:35;;;;;;;14.40;12.80;;;7.50;99.90;;;;;;6295724;22;21291;-64
2021/04/21 05:35:37;;;;;;;13.37;11.77;;;7.60;99.90;;;;;;6330602;22;20718;-66
2021/04/21 05:38:41;;;;;;;14.23;12.73;;;7.60;99.90;;;;;;6326095;22;20637;-65
2021/04/21 05:41:56;;;;;;;14.63;12.40;;;7.60;99.90;;;;;;6358472;22;20538;-66
2021/04/21 05:44:57;;;;;;;14.73;13.13;;;7.70;99.90;;;;;;6353551;22;20655;-65
2021/04/21 05:47:47;;;;;;;14.67;12.87;;;7.80;99.90;;;;;;6356171;22;20518;-66
2021/04/21 05:50:24;;;;;;;16.10;13.60;;;7.80;99.90;;;;;;6357379;22;20558;-66
2021/04/21 05:52:49;;;;;;;17.20;13.90;;;7.90;99.90;;;;;;6351659;22;20495;-67
2021/04/21 05:55:30;;;;;;;15.80;14.20;;;7.90;99.90;;;;;;6357035;22;20631;-66
2021/04/21 05:58:37;;;;;;;16.27;14.63;;;8.00;99.90;;;;;;6355392;22;20430;-66
2021/04/21 06:01:24;;;;;;;16.70;15.00;;;8.10;99.90;;;;;;6358958;22;20487;-67
2021/04/21 06:03:55;;;;;;;16.97;15.37;;;8.20;99.90;;;;;;6346172;22;20571;-65
2021/04/21 06:06:21;;;;;;;16.93;13.50;;;8.30;99.90;;;;;;6341638;22;20605;-67
2021/04/21 06:08:50;;;;;;;16.53;14.67;;;8.30;99.90;;;;;;6329139;22;20595;-66
2021/04/21 06:11:27;;;;;;;15.70;13.67;;;8.40;99.90;;;;;;6327483;22;20619;-64
2021/04/21 06:13:58;;;;;;;17.67;14.73;;;8.50;99.90;;;;;;6358968;22;20681;-66
2021/04/21 06:16:25;;;;;;;16.57;14.60;;;8.50;99.90;;;;;;6331574;22;20551;-67
2021/04/21 06:19:09;;;;;;;16.33;14.63;;;8.60;99.90;;;;;;6332070;22;20869;-66
2021/04/21 06:21:39;;;;;;;16.07;12.90;;;8.70;99.90;;;;;;6327111;22;20574;-67
2021/04/21 06:24:26;;;;;;;16.80;14.27;;;8.70;99.90;;;;;;6326614;22;21071;-65
2021/04/21 06:27:07;;;;;;;16.53;14.30;;;8.80;99.90;;;;;;6358410;22;20924;-67
2021/04/21 06:29:33;;;;;;;14.83;13.33;;;8.90;99.90;;;;;;6355121;22;20622;-65
2021/04/21 06:32:06;;;;;;;15.80;14.10;;;9.00;99.90;;;;;;6354654;22;21204;-65
2021/04/21 06:34:32;;;;;;;14.80;13.30;;;9.10;99.90;;;;;;6353067;22;20566;-65
2021/04/21 06:36:59;;;;;;;16.40;13.80;;;9.20;99.90;;;;;;6328485;22;20576;-67
2021/04/21 06:39:29;;;;;;;16.23;14.57;;;9.20;99.90;;;;;;6353495;22;20628;-66
2021/04/21 06:41:57;;;;;;;15.20;13.37;;;9.40;99.90;;;;;;6330126;22;20896;-67
2021/04/21 06:44:46;;;;;;;14.43;13.03;;;9.40;99.90;;;;;;6352365;22;20761;-66
2021/04/21 06:47:20;;;;;;;14.30;12.80;;;9.50;99.90;;;;;;6358795;22;20519;-66
2021/04/21 06:49:56;;;;;;;19.53;14.07;;;9.70;99.90;;;;;;6360161;22;20783;-65
2021/04/21 06:52:32;;;;;;;15.27;13.20;;;9.80;99.90;;;;;;6353463;22;20495;-67
2021/04/21 06:55:11;;;;;;;14.93;13.17;;;9.90;99.90;;;;;;6351791;22;20589;-66
2021/04/21 06:57:37;;;;;;;16.43;13.90;;;9.90;99.90;;;;;;6322982;22;20563;-65
2021/04/21 07:00:10;;;;;;;15.03;13.40;;;10.00;99.90;;;;;;6352548;22;20555;-66
2021/04/21 07:02:38;;;;;;;15.00;13.40;;;10.10;99.90;;;;;;6354666;22;20560;-65
2021/04/21 07:05:05;;;;;;;16.57;13.73;;;10.20;99.90;;;;;;6354215;22;20558;-66
2021/04/21 07:07:31;;;;;;;15.87;13.57;;;10.30;99.90;;;;;;6352485;22;20536;-67
2021/04/21 07:09:56;;;;;;;15.07;13.47;;;10.40;99.90;;;;;;6328920;22;20547;-68
2021/04/21 07:12:22;;;;;;;14.03;12.57;;;10.50;99.90;;;;;;6315699;22;20169;-68
2021/04/21 07:14:48;;;;;;;14.50;13.00;;;10.60;99.90;;;;;;6312019;22;20169;-71
2021/04/21 07:17:16;;;;;;;13.70;12.30;;;10.70;99.90;;;;;;6341548;22;20156;-70
2021/04/21 07:19:44;;;;;;;14.57;13.23;;;10.70;99.90;;;;;;6324814;22;20860;-70
2021/04/21 07:22:14;;;;;;;14.57;13.00;;;10.60;99.90;;;;;;6353289;22;20523;-69
2021/04/21 07:24:42;;;;;;;14.53;13.07;;;10.70;99.90;;;;;;6353991;22;20566;-70
2021/04/21 07:27:11;;;;;;;13.97;12.67;;;10.80;99.90;;;;;;6354164;22;20641;-65
2021/04/21 07:29:37;;;;;;;16.90;13.60;;;10.90;99.90;;;;;;6355289;22;21048;-67
2021/04/21 07:32:28;;;;;;;16.73;12.93;;;10.90;99.90;;;;;;6329797;22;20606;-67
2021/04/21 07:35:02;;;;;;;14.80;13.30;;;11.10;99.90;;;;;;6355933;22;20570;-67
2021/04/21 07:37:35;;;;;;;17.83;15.80;;;11.10;99.90;;;;;;6332552;22;20585;-68
2021/04/21 07:40:18;;;;;;;16.47;14.77;;;11.20;99.90;;;;;;6198851;22;20658;-66
2021/04/21 07:42:43;;;;;;;15.67;14.00;;;11.20;99.90;;;;;;6175593;23;20562;-63
2021/04/21 07:45:12;;;;;;;16.30;14.60;;;11.30;99.90;;;;;;6144697;22;20597;-63
2021/04/21 07:47:40;;;;;;;16.13;14.53;;;11.30;99.90;;;;;;6155193;23;20156;-65
2021/04/21 07:50:06;;;;;;;15.47;13.97;;;11.30;99.90;;;;;;6140067;23;21104;-66
2021/04/21 07:52:39;;;;;;;16.67;14.63;;;11.40;99.90;;;;;;6141062;23;20541;-62
2021/04/21 07:55:11;;;;;;;16.60;15.00;;;11.50;99.90;;;;;;6145541;23;20611;-63
2021/04/21 07:57:42;;;;;;;19.73;16.60;;;11.60;99.90;;;;;;6145983;23;20814;-63
2021/04/21 08:00:13;;;;;;;18.70;16.70;;;11.60;99.90;;;;;;6134814;23;20571;-64
2021/04/21 08:02:41;;;;;;;18.77;16.40;;;11.70;99.90;;;;;;6138040;23;20494;-67
2021/04/21 08:05:11;;;;;;;21.63;18.97;;;11.80;99.90;;;;;;6141807;22;20645;-66
2021/04/21 08:07:55;;;;;;;18.20;15.80;;;11.90;99.90;;;;;;6139946;23;20537;-64
2021/04/21 08:10:25;;;;;;;26.67;18.40;;;11.90;99.90;;;;;;6145453;23;20683;-62
2021/04/21 08:12:52;;;;;;;22.07;16.27;;;12.00;99.90;;;;;;6143039;23;20538;-64
2021/04/21 08:15:19;;;;;;;18.67;16.70;;;12.00;99.90;;;;;;6143186;23;20557;-63
2021/04/21 08:17:53;;;;;;;19.80;17.70;;;12.00;99.90;;;;;;6139682;23;20561;-63
2021/04/21 08:20:30;;;;;;;19.83;17.60;;;11.90;99.90;;;;;;6140332;23;20611;-63
2021/04/21 08:23:00;;;;;;;22.17;19.80;;;12.00;99.90;;;;;;6140712;23;21077;-63
2021/04/21 08:25:29;;;;;;;22.87;20.37;;;12.10;99.90;;;;;;6145870;23;20536;-63
2021/04/21 08:27:55;;;;;;;24.90;20.23;;;12.10;99.90;;;;;;6141961;23;20917;-65
2021/04/21 08:30:22;;;;;;;24.97;22.03;;;12.10;99.90;;;;;;6140495;23;20588;-64
2021/04/21 08:32:47;;;;;;;24.60;22.00;;;12.10;99.90;;;;;;6143750;23;20525;-63
2021/04/21 08:35:16;;;;;;;23.63;21.13;;;12.00;99.90;;;;;;6139050;22;20561;-64
2021/04/21 08:37:45;;;;;;;24.40;21.20;;;11.90;99.90;;;;;;6142990;23;20153;-64
2021/04/21 08:40:14;;;;;;;23.50;21.10;;;11.90;99.90;;;;;;6271117;22;20635;-64
2021/04/21 08:42:42;;;;;;;25.00;22.30;;;12.00;99.90;;;;;;6299956;22;20559;-61
2021/04/21 08:45:10;;;;;;;27.23;23.63;;;12.00;99.90;;;;;;6300103;22;21318;-63
2021/04/21 08:47:39;;;;;;;27.93;23.10;;;12.00;99.90;;;;;;6298155;22;20703;-65
2021/04/21 08:50:06;;;;;;;30.40;23.67;;;12.00;99.90;;;;;;6273722;22;20569;-63
2021/04/21 08:52:55;;;;;;;26.50;23.70;;;11.80;99.90;;;;;;6301647;22;20536;-62
2021/04/21 08:55:27;;;;;;;28.17;23.07;;;11.70;99.90;;;;;;6305714;22;20545;-65
2021/04/21 08:57:53;;;;;;;29.10;22.30;;;11.60;99.90;;;;;;6309788;22;20566;-66
2021/04/21 09:00:22;;;;;;;27.90;22.47;;;11.50;99.90;;;;;;6280410;22;20946;-65
2021/04/21 09:02:48;;;;;;;26.17;22.67;;;11.60;99.90;;;;;;6297753;22;20553;-65
2021/04/21 09:05:18;;;;;;;26.87;21.13;;;11.60;99.90;;;;;;6302553;22;20940;-65
2021/04/21 09:07:45;;;;;;;26.47;22.20;;;11.60;99.90;;;;;;6296577;22;20559;-65
2021/04/21 09:10:12;;;;;;;27.07;22.23;;;11.70;99.90;;;;;;6269785;22;20640;-65
2021/04/21 09:12:39;;;;;;;27.30;20.00;;;11.80;99.90;;;;;;6293354;22;20529;-66
2021/04/21 09:15:06;;;;;;;28.00;22.20;;;11.80;99.90;;;;;;6273660;22;20906;-66
2021/04/21 09:17:32;;;;;;;28.23;21.80;;;11.90;99.90;;;;;;6271960;22;20571;-66
2021/04/21 09:20:04;;;;;;;25.67;21.97;;;12.10;99.90;;;;;;6268464;22;20907;-66
2021/04/21 09:22:30;;;;;;;30.37;22.80;;;12.10;99.90;;;;;;6269389;22;20158;-66
2021/04/21 09:25:00;;;;;;;23.83;20.23;;;12.20;99.90;;;;;;6288911;22;21176;-67
2021/04/21 09:27:30;;;;;;;23.87;20.47;;;12.10;99.90;;;;;;6295970;22;20594;-67
2021/04/21 09:30:16;;;;;;;24.27;21.00;;;12.20;99.90;;;;;;6271582;22;20557;-67
2021/04/21 09:32:52;;;;;;;23.60;21.03;;;12.30;99.90;;;;;;6267575;22;20599;-67
2021/04/21 09:35:32;;;;;;;22.73;19.73;;;12.20;99.90;;;;;;6297580;22;20560;-66
2021/04/21 09:38:10;;;;;;;23.57;19.80;;;12.40;99.90;;;;;;6293636;22;20517;-67
2021/04/21 09:41:19;;;;;;;22.03;19.13;;;12.20;99.90;;;;;;6139101;22;20592;-66
2021/04/21 09:43:45;;;;;;;20.50;18.30;;;12.20;99.90;;;;;;6136488;23;20797;-67
2021/04/21 09:46:19;;;;;;;22.07;19.63;;;12.20;99.90;;;;;;6137408;22;20538;-67
2021/04/21 09:48:46;;;;;;;22.00;18.00;;;12.20;99.90;;;;;;6143165;23;20228;-65
2021/04/21 09:51:14;;;;;;;19.83;17.70;;;12.20;99.90;;;;;;6135059;23;20674;-66
2021/04/21 09:53:48;;;;;;;20.13;17.47;;;12.20;99.90;;;;;;6137457;23;20678;-66
2021/04/21 09:56:25;;;;;;;19.27;17.07;;;12.30;99.90;;;;;;6161444;23;20541;-66
2021/04/21 09:58:58;;;;;;;21.70;17.80;;;12.30;99.90;;;;;;6142327;23;20702;-65
2021/04/21 10:01:28;;;;;;;21.37;17.07;;;12.30;99.90;;;;;;6139254;23;20617;-66
2021/04/21 10:04:12;;;;;;;19.80;17.37;;;12.20;99.90;;;;;;6134837;23;20710;-67
2021/04/21 10:06:51;;;;;;;19.03;16.97;;;12.20;99.90;;;;;;6136068;23;20999;-67
2021/04/21 10:09:39;;;;;;;18.90;16.17;;;12.20;99.90;;;;;;6142524;23;20561;-66
2021/04/21 10:12:21;;;;;;;17.70;15.10;;;12.20;99.90;;;;;;6141732;23;20609;-66
2021/04/21 10:15:07;;;;;;;15.50;13.73;;;12.20;99.90;;;;;;6138638;23;20646;-66
2021/04/21 10:17:36;;;;;;;15.80;14.20;;;12.30;99.90;;;;;;6135644;23;21240;-69
2021/04/21 10:20:20;;;;;;;16.00;14.30;;;12.30;99.90;;;;;;6137774;23;20587;-66
2021/04/21 10:22:49;;;;;;;16.10;14.40;;;12.30;99.90;;;;;;6151092;22;20586;-66
2021/04/21 10:25:15;;;;;;;16.57;14.23;;;12.40;99.90;;;;;;6149015;23;20562;-67
2021/04/21 10:27:41;;;;;;;16.27;14.07;;;12.40;99.90;;;;;;6145418;23;20561;-66
2021/04/21 10:30:09;;;;;;;14.50;13.00;;;12.40;99.90;;;;;;6141379;23;21097;-67
2021/04/21 10:32:35;;;;;;;14.43;12.90;;;12.30;99.90;;;;;;6135465;23;20161;-65
2021/04/21 10:35:01;;;;;;;15.20;13.37;;;12.30;99.90;;;;;;6141742;23;20605;-68
2021/04/21 10:37:29;;;;;;;12.43;11.20;;;12.10;99.90;;;;;;6135038;22;20573;-65
2021/04/21 10:39:55;;;;;;;11.10;9.90;;;12.30;99.90;;;;;;6253900;22;20181;-66
2021/04/21 10:42:22;;;;;;;9.20;8.40;;;12.40;99.90;;;;;;6299439;22;20545;-66
2021/04/21 10:44:50;;;;;;;9.07;8.17;;;12.40;99.90;;;;;;6268331;22;20171;-67
2021/04/21 10:47:24;;;;;;;10.90;9.87;;;12.50;99.90;;;;;;6269082;22;20908;-65
2021/04/21 10:50:04;;;;;;;10.30;9.20;;;12.50;99.90;;;;;;6297122;22;20524;-66
2021/04/21 10:52:29;;;;;;;10.27;9.33;;;12.50;99.90;;;;;;6270682;22;20968;-65
2021/04/21 10:55:07;;;;;;;10.13;9.20;;;12.70;99.90;;;;;;6297723;22;20580;-66
2021/04/21 10:57:53;;;;;;;7.97;7.27;;;12.90;99.90;;;;;;6299994;22;20223;-66
2021/04/21 11:00:35;;;;;;;7.47;6.57;;;12.80;99.90;;;;;;6289415;22;20552;-66
2021/04/21 11:03:26;;;;;;;8.03;6.40;;;12.60;99.90;;;;;;6307163;22;20677;-67
2021/04/21 11:05:59;;;;;;;7.03;6.37;;;12.70;99.90;;;;;;6280976;22;20639;-66
2021/04/21 11:08:31;;;;;;;6.00;5.37;;;12.70;99.90;;;;;;6284611;22;20552;-66
2021/04/21 11:11:05;;;;;;;5.73;5.20;;;12.70;99.90;;;;;;6283766;22;20689;-66
2021/04/21 11:13:36;;;;;;;5.40;4.63;;;12.80;99.90;;;;;;6313609;22;20600;-67
2021/04/21 11:16:14;;;;;;;5.10;4.53;;;12.90;99.90;;;;;;6299959;22;20647;-67
2021/04/21 11:18:40;;;;;;;4.80;4.50;;;13.10;99.90;;;;;;6299424;22;20536;-66
2021/04/21 11:21:20;;;;;;;6.73;4.90;;;13.30;99.90;;;;;;6268801;22;20564;-65
2021/04/21 11:24:00;;;;;;;4.70;4.30;;;13.30;99.90;;;;;;6294519;22;20636;-66
2021/04/21 11:26:27;;;;;;;5.47;4.13;;;13.20;99.90;;;;;;6261528;22;21113;-65
2021/04/21 11:29:22;;;;;;;7.00;4.10;;;13.20;99.90;;;;;;6289163;22;20532;-66
2021/04/21 11:31:51;;;;;;;4.93;3.77;;;13.30;99.90;;;;;;6278582;22;20990;-66
2021/04/21 11:34:36;;;;;;;6.73;3.70;;;13.30;99.90;;;;;;6263234;22;21157;-66
2021/04/21 11:37:18;;;;;;;4.50;4.10;;;13.40;99.90;;;;;;6290559;22;20578;-67
2021/04/21 11:39:56;;;;;;;5.43;3.80;;;13.40;99.90;;;;;;6177494;22;20602;-66
2021/04/21 11:42:24;;;;;;;3.90;3.60;;;13.40;99.90;;;;;;6133233;23;20881;-65
2021/04/21 11:44:50;;;;;;;4.40;3.50;;;13.40;99.90;;;;;;6135174;23;20625;-63
2021/04/21 11:47:31;;;;;;;4.73;3.77;;;13.50;99.90;;;;;;6131794;23;20600;-62
2021/04/21 11:50:00;;;;;;;5.23;3.27;;;13.60;99.90;;;;;;6130774;23;20161;-63
2021/04/21 11:52:50;;;;;;;6.63;2.40;;;13.70;99.90;;;;;;6128969;23;21129;-63
2021/04/21 11:55:20;;;;;;;3.73;2.23;;;13.80;99.90;;;;;;6127666;23;20521;-64
2021/04/21 11:58:08;;;;;;;3.50;1.90;;;13.70;99.90;;;;;;6131707;23;20561;-63
2021/04/21 12:00:45;;;;;;;5.03;1.73;;;13.70;99.90;;;;;;6132325;23;20898;-65
2021/04/21 12:03:13;;;;;;;3.60;1.97;;;13.70;99.90;;;;;;6133555;23;20603;-63
2021/04/21 12:05:42;;;;;;;4.13;1.90;;;13.70;99.90;;;;;;6126209;23;20576;-63
2021/04/21 12:08:09;;;;;;;3.33;1.87;;;13.80;99.90;;;;;;6130337;23;20537;-63
2021/04/21 12:10:37;;;;;;;5.50;2.10;;;14.00;99.90;;;;;;6128842;23;20609;-63
2021/04/21 12:13:14;;;;;;;4.57;2.13;;;14.20;99.90;;;;;;6129189;23;20660;-61
2021/04/21 12:15:44;;;;;;;4.87;1.83;;;14.20;99.90;;;;;;6133375;23;20573;-63
2021/04/21 12:18:09;;;;;;;4.57;2.10;;;14.30;99.90;;;;;;6128783;23;20575;-63
2021/04/21 12:20:36;;;;;;;5.83;2.40;;;14.30;99.90;;;;;;6134638;23;20548;-62
2021/04/21 12:23:07;;;;;;;6.03;2.47;;;14.30;99.90;;;;;;6152826;23;20170;-63
2021/04/21 12:25:37;;;;;;;7.60;2.83;;;14.10;99.90;;;;;;6133329;23;20600;-64
2021/04/21 12:28:03;;;;;;;7.23;2.17;;;14.10;99.90;;;;;;6132106;23;20573;-61
2021/04/21 12:30:32;;;;;;;6.03;2.07;;;14.30;99.90;;;;;;6117872;23;20623;-63
2021/04/21 12:33:09;;;;;;;4.70;2.53;;;14.30;99.90;;;;;;6122791;23;20565;-62
2021/04/21 12:35:36;;;;;;;4.70;2.03;;;14.50;99.90;;;;;;6138848;23;21070;-63
2021/04/21 12:38:03;;;;;;;5.10;1.90;;;14.50;99.90;;;;;;6116987;23;20585;-65
2021/04/21 12:40:33;;;;;;;5.30;2.13;;;14.70;99.90;;;;;;6126642;23;20591;-69
2021/04/21 12:43:16;;;;;;;4.87;2.37;;;14.90;99.90;;;;;;6126283;23;20634;-66
2021/04/21 12:45:44;;;;;;;5.40;2.00;;;15.00;99.90;;;;;;6141290;23;21049;-64
2021/04/21 12:48:27;;;;;;;7.40;2.47;;;15.00;99.90;;;;;;6135034;23;20569;-64
2021/04/21 12:50:55;;;;;;;7.93;2.30;;;14.80;99.90;;;;;;6138512;23;20585;-64
2021/04/21 12:53:30;;;;;;;7.30;2.43;;;14.70;99.90;;;;;;6133246;23;21155;-61
2021/04/21 12:56:10;;;;;;;5.23;2.50;;;14.70;99.90;;;;;;6158789;23;20702;-64
2021/04/21 12:58:38;;;;;;;5.20;3.00;;;14.60;99.90;;;;;;6134474;23;20543;-64
2021/04/21 13:01:16;;;;;;;5.37;2.30;;;14.40;99.90;;;;;;6134016;23;21070;-64
2021/04/21 13:04:03;;;;;;;4.50;2.77;;;14.30;99.90;;;;;;6133105;23;20593;-71
2021/04/21 13:06:44;;;;;;;5.43;2.50;;;14.60;99.90;;;;;;6134898;23;20906;-62
2021/04/21 13:09:18;;;;;;;7.13;2.93;;;14.80;99.90;;;;;;6134554;23;20517;-64
2021/04/21 13:11:50;;;;;;;4.30;2.60;;;15.10;99.90;;;;;;6134381;23;21290;-63
2021/04/21 13:14:21;;;;;;;4.40;3.10;;;15.30;99.90;;;;;;6154372;23;21005;-64
2021/04/21 13:16:54;;;;;;;5.20;2.70;;;15.40;99.90;;;;;;6133720;23;20498;-64
2021/04/21 13:19:25;;;;;;;3.50;2.50;;;15.60;99.90;;;;;;6142179;23;20880;-64